createdAt,value
2022-09-06T00:00:38.136Z,7.67
2022-09-06T00:03:05.120Z,8.50
2022-09-06T00:05:32.096Z,8.37
2022-09-06T00:07:58.619Z,7.97
2022-09-06T00:10:25.203Z,7.20
2022-09-06T00:12:51.735Z,7.10
2022-09-06T00:15:18.631Z,7.43
2022-09-06T00:17:45.164Z,7.17
2022-09-06T00:20:11.839Z,7.10
2022-09-06T00:36:04.108Z,6.80
2022-09-06T00:38:31.054Z,7.10
2022-09-06T00:40:57.932Z,7.63
2022-09-06T00:43:24.798Z,6.97
2022-09-06T00:45:51.751Z,7.20
2022-09-06T00:48:26.445Z,7.40
2022-09-06T00:50:53.025Z,7.83
2022-09-06T00:53:19.543Z,7.00
2022-09-06T00:55:46.074Z,7.53
2022-09-06T00:58:13.489Z,6.80
2022-09-06T01:00:40.021Z,7.17
2022-09-06T01:03:06.700Z,9.03
2022-09-06T01:05:33.316Z,6.73
2022-09-06T01:08:00.218Z,7.10
2022-09-06T01:10:26.927Z,7.00
2022-09-06T01:12:53.437Z,7.63
2022-09-06T01:15:19.945Z,6.67
2022-09-06T01:23:07.345Z,7.50
2022-09-06T01:25:33.906Z,6.50
2022-09-06T01:28:00.434Z,5.40
2022-09-06T01:30:27.022Z,6.47
2022-09-06T01:32:53.621Z,6.60
2022-09-06T01:35:20.135Z,7.23
2022-09-06T01:37:47.069Z,6.87
2022-09-06T01:40:13.693Z,5.90
2022-09-06T01:42:40.268Z,6.00
2022-09-06T01:45:06.906Z,5.77
2022-09-06T01:47:41.524Z,5.80
2022-09-06T01:50:08.232Z,6.10
2022-09-06T01:52:34.918Z,5.87
2022-09-06T01:55:01.825Z,5.53
2022-09-06T01:57:28.461Z,6.03
2022-09-06T01:59:55.137Z,6.37
2022-09-06T02:02:21.749Z,6.27
2022-09-06T02:04:48.403Z,6.27
2022-09-06T02:07:15.250Z,6.43
2022-09-06T02:09:41.903Z,5.80
2022-09-06T02:12:08.724Z,5.40
2022-09-06T02:14:43.813Z,6.73
2022-09-06T02:17:10.563Z,6.40
2022-09-06T02:19:37.249Z,7.23
2022-09-06T02:22:11.761Z,6.83
2022-09-06T02:24:46.388Z,7.87
2022-09-06T02:27:12.919Z,7.10
2022-09-06T02:29:39.970Z,6.70
2022-09-06T02:37:27.396Z,6.97
2022-09-06T02:39:53.957Z,6.50
2022-09-06T02:42:29.865Z,6.50
2022-09-06T02:44:56.649Z,5.87
2022-09-06T03:00:40.965Z,5.20
2022-09-06T03:03:15.513Z,5.53
2022-09-06T03:05:42.088Z,6.33
2022-09-06T03:08:08.706Z,5.47
2022-09-06T03:10:35.585Z,5.93
2022-09-06T03:13:02.513Z,5.30
2022-09-06T03:15:37.145Z,5.60
2022-09-06T03:18:03.894Z,6.27
2022-09-06T03:20:35.025Z,6.23
2022-09-06T03:23:14.418Z,5.80
2022-09-06T03:25:41.078Z,6.10
2022-09-06T03:28:07.611Z,5.60
2022-09-06T03:30:34.263Z,5.90
2022-09-06T03:33:11.850Z,5.23
2022-09-06T03:35:38.519Z,6.27
2022-09-06T03:38:14.140Z,5.50
2022-09-06T03:40:40.849Z,6.00
2022-09-06T03:43:07.725Z,5.57
2022-09-06T03:45:34.344Z,5.37
2022-09-06T03:48:10.951Z,5.57
2022-09-06T04:03:56.353Z,6.73
2022-09-06T04:09:15.323Z,5.73
2022-09-06T04:11:44.956Z,6.00
2022-09-06T04:14:12.462Z,6.03
2022-09-06T04:19:27.423Z,6.60
2022-09-06T04:22:03.281Z,6.40
2022-09-06T04:27:10.197Z,5.63
2022-09-06T04:29:36.717Z,6.07
2022-09-06T04:32:05.488Z,6.23
2022-09-06T04:34:33.100Z,6.33
2022-09-06T04:37:07.786Z,6.47
2022-09-06T04:39:34.467Z,6.60
2022-09-06T04:42:09.148Z,6.10
2022-09-06T04:44:43.726Z,5.83
2022-09-06T04:47:10.279Z,5.53
2022-09-06T04:49:39.325Z,5.77
2022-09-06T04:52:05.841Z,5.50
2022-09-06T04:54:45.362Z,6.40
2022-09-06T04:57:13.546Z,6.60
2022-09-06T05:02:20.611Z,6.30
2022-09-06T05:04:47.201Z,6.47
2022-09-06T05:07:13.717Z,6.40
2022-09-06T05:12:20.995Z,6.60
2022-09-06T05:17:35.961Z,6.77
2022-09-06T05:20:02.870Z,6.90
2022-09-06T05:22:29.504Z,7.13
2022-09-06T05:25:04.206Z,6.97
2022-09-06T05:40:56.497Z,6.90
2022-09-06T05:46:04.475Z,6.07
2022-09-06T05:51:11.622Z,8.10
2022-09-06T05:53:38.248Z,8.63
2022-09-06T05:56:05.808Z,8.97
2022-09-06T06:01:13.192Z,9.30
2022-09-06T06:03:39.959Z,9.30
2022-09-06T06:06:06.613Z,8.57
2022-09-06T06:08:33.285Z,7.77
2022-09-06T06:13:40.385Z,7.93
2022-09-06T06:16:15.983Z,9.60
2022-09-06T06:18:42.742Z,9.80
2022-09-06T06:21:09.367Z,10.53
2022-09-06T06:23:35.922Z,10.80
2022-09-06T06:28:43.010Z,10.50
2022-09-06T06:31:11.098Z,9.53
2022-09-06T06:33:37.794Z,9.33
2022-09-06T06:36:04.671Z,10.20
2022-09-06T06:38:31.321Z,9.93
2022-09-06T06:41:08.956Z,9.90
2022-09-06T06:43:35.588Z,11.03
2022-09-06T06:46:02.315Z,10.20
2022-09-06T06:48:29.306Z,11.27
2022-09-06T06:50:55.910Z,9.53
2022-09-06T06:56:03.249Z,10.83
2022-09-06T07:01:11.116Z,10.60
2022-09-06T07:09:15.481Z,11.70
2022-09-06T07:11:42.103Z,11.63
2022-09-06T07:14:08.623Z,10.60
2022-09-06T07:16:35.252Z,10.90
2022-09-06T07:19:02.200Z,10.63
2022-09-06T07:24:06.593Z,10.80
2022-09-06T07:26:34.070Z,11.27
2022-09-06T07:29:01.186Z,11.60
2022-09-06T07:34:22.376Z,11.43
2022-09-06T07:36:49.088Z,10.53
2022-09-06T07:39:15.782Z,10.87
2022-09-06T07:41:42.666Z,10.80
2022-09-06T07:44:17.190Z,10.20
2022-09-06T07:46:52.477Z,11.07
2022-09-06T07:49:19.360Z,10.23
2022-09-06T07:51:45.912Z,9.57
2022-09-06T07:54:30.020Z,11.07
2022-09-06T07:56:57.333Z,10.63
2022-09-06T07:59:24.033Z,10.23
2022-09-06T08:01:50.762Z,9.63
2022-09-06T08:04:17.391Z,9.53
2022-09-06T08:09:30.492Z,9.57
2022-09-06T08:11:57.051Z,8.60
2022-09-06T08:14:23.562Z,8.83
2022-09-06T08:16:50.248Z,9.03
2022-09-06T08:19:16.783Z,9.93
2022-09-06T08:21:43.290Z,8.63
2022-09-06T08:24:09.822Z,8.30
2022-09-06T08:26:36.496Z,8.33
2022-09-06T08:29:03.181Z,9.00
2022-09-06T08:31:29.832Z,9.37
2022-09-06T08:33:56.446Z,9.03
2022-09-06T08:36:23.019Z,9.10
2022-09-06T08:38:49.624Z,8.30
2022-09-06T08:41:16.189Z,8.20
2022-09-06T08:43:42.702Z,8.67
2022-09-06T08:46:09.298Z,8.17
2022-09-06T08:48:36.218Z,8.20
2022-09-06T08:51:02.781Z,7.93
2022-09-06T08:53:29.540Z,8.73
2022-09-06T08:55:56.123Z,8.63
2022-09-06T08:58:23.081Z,8.13
2022-09-06T09:00:49.671Z,8.67
2022-09-06T09:03:17.149Z,8.23
2022-09-06T09:05:43.802Z,8.53
2022-09-06T09:08:10.376Z,8.70
2022-09-06T09:10:36.888Z,7.93
2022-09-06T09:13:03.391Z,9.23
2022-09-06T09:15:30.009Z,8.90
2022-09-06T09:17:56.586Z,8.20
2022-09-06T09:20:23.087Z,8.83
2022-09-06T09:22:49.649Z,8.23
2022-09-06T09:25:16.211Z,9.07
2022-09-06T09:27:42.770Z,8.47
2022-09-06T09:32:55.862Z,8.60
2022-09-06T09:35:22.558Z,8.60
2022-09-06T09:37:51.081Z,9.10
2022-09-06T09:40:21.917Z,10.00
2022-09-06T09:42:48.459Z,10.40
2022-09-06T09:45:15.041Z,9.90
2022-09-06T09:47:41.573Z,9.73
2022-09-06T09:50:08.242Z,9.87
2022-09-06T09:52:34.818Z,10.67
2022-09-06T09:55:01.405Z,10.10
2022-09-06T09:57:27.912Z,10.20
2022-09-06T09:59:54.599Z,10.57
2022-09-06T10:02:21.165Z,11.83
2022-09-06T10:04:47.761Z,11.20
2022-09-06T10:07:14.460Z,11.60
2022-09-06T10:09:41.143Z,12.13
2022-09-06T10:12:07.710Z,12.53
2022-09-06T10:14:34.211Z,13.73
2022-09-06T10:17:00.824Z,12.80
2022-09-06T10:19:27.341Z,12.00
2022-09-06T10:21:53.852Z,13.63
2022-09-06T10:26:49.912Z,12.83
2022-09-06T10:29:16.610Z,12.80
2022-09-06T10:31:43.249Z,11.90
2022-09-06T10:34:09.989Z,13.27
2022-09-06T10:36:36.497Z,12.10
2022-09-06T10:39:04.039Z,11.67
2022-09-06T10:41:30.877Z,13.03
2022-09-06T10:43:57.381Z,12.47
2022-09-06T10:46:24.010Z,12.30
2022-09-06T10:48:50.654Z,13.00
2022-09-06T10:51:17.167Z,11.40
2022-09-06T10:53:43.734Z,11.57
2022-09-06T10:56:10.435Z,9.77
2022-09-06T11:01:23.890Z,10.73
2022-09-06T11:03:53.482Z,10.67
2022-09-06T11:06:20.693Z,9.07
2022-09-06T11:08:50.325Z,8.80
2022-09-06T11:11:17.802Z,9.27
2022-09-06T11:13:44.340Z,8.97
2022-09-06T11:16:10.960Z,8.37
2022-09-06T11:18:37.625Z,7.80
2022-09-06T11:21:04.151Z,7.47
2022-09-06T11:23:30.730Z,8.43
2022-09-06T11:25:57.334Z,8.33
2022-09-06T11:28:23.838Z,8.33
2022-09-06T11:30:50.467Z,6.43
2022-09-06T11:33:17.091Z,6.90
2022-09-06T11:35:43.670Z,9.53
2022-09-06T11:38:10.234Z,7.20
2022-09-06T11:40:36.838Z,7.50
2022-09-06T11:43:03.513Z,7.57
2022-09-06T11:45:30.032Z,6.90
2022-09-06T11:47:56.617Z,7.60
2022-09-06T11:50:23.185Z,6.80
2022-09-06T11:52:49.762Z,6.90
2022-09-06T11:55:19.843Z,8.13
2022-09-06T11:57:48.744Z,9.00
2022-09-06T12:00:15.363Z,6.27
2022-09-06T12:02:41.963Z,5.67
2022-09-06T12:05:08.613Z,5.73
2022-09-06T12:07:35.133Z,5.53
2022-09-06T12:10:01.665Z,5.70
2022-09-06T12:12:28.573Z,5.90
2022-09-06T12:14:55.171Z,4.93
2022-09-06T12:17:21.754Z,5.50
2022-09-06T12:19:48.305Z,4.87
2022-09-06T12:22:14.877Z,5.33
2022-09-06T12:24:41.446Z,5.17
2022-09-06T12:27:08.059Z,4.90
2022-09-06T12:29:34.624Z,6.20
2022-09-06T12:32:01.120Z,3.93
2022-09-06T12:34:27.746Z,3.67
2022-09-06T12:36:54.368Z,4.27
2022-09-06T12:39:20.877Z,4.03
2022-09-06T12:41:47.410Z,4.00
2022-09-06T12:44:13.996Z,3.67
2022-09-06T12:46:40.558Z,3.97
2022-09-06T12:49:07.100Z,3.30
2022-09-06T12:51:33.656Z,3.80
2022-09-06T12:54:00.174Z,3.03
2022-09-06T12:56:26.693Z,2.67
2022-09-06T12:58:53.295Z,2.20
2022-09-06T13:01:19.945Z,1.90
2022-09-06T13:03:46.553Z,2.30
2022-09-06T13:06:13.073Z,2.57
2022-09-06T13:08:39.647Z,2.50
2022-09-06T13:11:06.167Z,2.50
2022-09-06T13:13:32.709Z,1.70
2022-09-06T13:15:59.280Z,2.20
2022-09-06T13:18:25.978Z,1.77
2022-09-06T13:20:52.520Z,2.37
2022-09-06T13:23:19.089Z,2.10
2022-09-06T13:25:45.588Z,2.07
2022-09-06T13:28:12.268Z,1.80
2022-09-06T13:30:38.955Z,2.37
2022-09-06T13:33:05.908Z,4.33
2022-09-06T13:35:32.487Z,6.87
2022-09-06T13:37:59.053Z,5.20
2022-09-06T13:40:25.581Z,2.17
2022-09-06T13:42:52.122Z,4.47
2022-09-06T13:45:18.781Z,2.20
2022-09-06T13:47:45.295Z,2.60
2022-09-06T13:50:11.877Z,2.10
2022-09-06T13:52:38.438Z,1.87
2022-09-06T13:55:05.144Z,2.17
2022-09-06T13:57:31.651Z,2.40
2022-09-06T13:59:58.312Z,2.13
2022-09-06T14:02:25.106Z,1.87
2022-09-06T14:04:51.651Z,2.17
2022-09-06T14:07:18.222Z,2.23
2022-09-06T14:09:44.744Z,2.20
2022-09-06T14:12:11.249Z,2.50
2022-09-06T14:14:37.801Z,2.30
2022-09-06T14:17:04.350Z,2.30
2022-09-06T14:19:30.861Z,2.20
2022-09-06T14:21:57.782Z,2.57
2022-09-06T14:24:24.386Z,2.27
2022-09-06T14:26:51.079Z,2.77
2022-09-06T14:29:17.627Z,2.17
2022-09-06T14:31:44.147Z,3.30
2022-09-06T14:34:10.658Z,2.37
2022-09-06T14:36:37.248Z,2.73
2022-09-06T14:39:03.789Z,2.33
2022-09-06T14:41:30.318Z,3.23
2022-09-06T14:43:56.818Z,2.20
2022-09-06T14:46:23.435Z,2.23
2022-09-06T14:48:50.071Z,2.17
2022-09-06T14:51:16.590Z,3.87
2022-09-06T14:53:43.290Z,3.00
2022-09-06T14:56:10.005Z,2.23
2022-09-06T14:58:36.917Z,2.60
2022-09-06T15:01:03.445Z,3.03
2022-09-06T15:03:30.123Z,3.03
2022-09-06T15:05:56.690Z,2.97
2022-09-06T15:08:23.195Z,2.60
2022-09-06T15:10:49.736Z,3.07
2022-09-06T15:13:16.266Z,3.80
2022-09-06T15:15:42.870Z,2.67
2022-09-06T15:18:09.483Z,2.57
2022-09-06T15:20:36.003Z,3.23
2022-09-06T15:23:24.333Z,2.30
2022-09-06T15:25:49.200Z,2.53
2022-09-06T15:28:15.736Z,2.83
2022-09-06T15:30:42.332Z,3.40
2022-09-06T15:33:08.916Z,2.70
2022-09-06T15:35:35.430Z,3.20
2022-09-06T15:38:01.966Z,2.77
2022-09-06T15:40:28.477Z,2.80
2022-09-06T15:42:55.418Z,3.40
2022-09-06T15:45:21.988Z,3.13
2022-09-06T15:47:48.900Z,4.40
2022-09-06T15:50:29.131Z,2.90
2022-09-06T15:53:01.941Z,3.03
2022-09-06T15:55:28.449Z,2.70
2022-09-06T15:57:55.105Z,4.27
2022-09-06T16:00:21.653Z,2.83
2022-09-06T16:02:48.186Z,3.43
2022-09-06T16:05:14.798Z,3.57
2022-09-06T16:07:41.303Z,3.10
2022-09-06T16:10:07.859Z,3.87
2022-09-06T16:12:34.608Z,4.47
2022-09-06T16:15:01.273Z,3.13
2022-09-06T16:17:28.167Z,6.17
2022-09-06T16:19:54.871Z,3.97
2022-09-06T16:22:21.431Z,5.23
2022-09-06T16:24:47.943Z,4.47
2022-09-06T16:27:14.543Z,3.90
2022-09-06T16:29:41.433Z,4.67
2022-09-06T16:32:08.016Z,4.83
2022-09-06T16:34:34.568Z,4.43
2022-09-06T16:37:01.247Z,4.20
2022-09-06T16:39:27.893Z,5.37
2022-09-06T16:41:54.950Z,5.53
2022-09-06T16:44:21.502Z,4.40
2022-09-06T16:46:48.020Z,5.83
2022-09-06T16:49:14.700Z,4.70
2022-09-06T16:51:41.217Z,5.43
2022-09-06T16:54:07.785Z,7.63
2022-09-06T16:56:34.385Z,5.63
2022-09-06T16:59:00.900Z,6.23
2022-09-06T17:01:27.491Z,6.23
2022-09-06T17:03:54.158Z,4.90
2022-09-06T17:06:20.661Z,6.03
2022-09-06T17:08:47.177Z,5.33
2022-09-06T17:11:13.761Z,5.73
2022-09-06T17:13:40.265Z,5.27
2022-09-06T17:16:06.917Z,5.40
2022-09-06T17:18:33.646Z,7.00
2022-09-06T17:21:00.182Z,5.13
2022-09-06T17:23:26.701Z,6.90
2022-09-06T17:25:53.249Z,4.70
2022-09-06T17:28:19.843Z,5.57
2022-09-06T17:30:46.485Z,6.47
2022-09-06T17:33:13.123Z,5.23
2022-09-06T17:35:39.696Z,5.80
2022-09-06T17:38:06.212Z,8.13
2022-09-06T17:40:33.141Z,5.93
2022-09-06T17:42:59.822Z,6.37
2022-09-06T17:45:26.375Z,5.90
2022-09-06T17:47:52.893Z,6.13
2022-09-06T17:50:19.430Z,5.87
2022-09-06T17:52:46.059Z,6.13
2022-09-06T17:55:12.586Z,6.37
2022-09-06T17:57:39.089Z,6.33
2022-09-06T18:00:05.629Z,6.50
2022-09-06T18:02:32.317Z,6.63
2022-09-06T18:04:58.936Z,6.13
2022-09-06T18:07:25.582Z,6.67
2022-09-06T18:09:52.170Z,7.70
2022-09-06T18:12:18.692Z,7.77
2022-09-06T18:14:45.231Z,7.83
2022-09-06T18:17:11.759Z,7.53
2022-09-06T18:19:38.294Z,6.23
2022-09-06T18:22:04.863Z,5.97
2022-09-06T18:24:31.416Z,6.53
2022-09-06T18:26:58.079Z,8.13
2022-09-06T18:29:24.818Z,7.50
2022-09-06T18:31:51.375Z,6.40
2022-09-06T18:34:18.135Z,7.17
2022-09-06T18:36:44.689Z,6.47
2022-09-06T18:39:11.190Z,6.63
2022-09-06T18:41:45.739Z,7.57
2022-09-06T18:44:12.433Z,7.00
2022-09-06T18:46:38.945Z,6.83
2022-09-06T18:49:05.639Z,8.87
2022-09-06T18:51:32.345Z,6.93
2022-09-06T18:53:58.982Z,6.47
2022-09-06T18:56:25.616Z,8.23
2022-09-06T18:58:52.262Z,7.70
2022-09-06T19:01:19.030Z,7.40
2022-09-06T19:03:46.086Z,7.17
2022-09-06T19:06:12.796Z,7.27
2022-09-06T19:08:39.454Z,6.70
2022-09-06T19:11:06.038Z,7.10
2022-09-06T19:13:32.713Z,8.30
2022-09-06T19:15:59.368Z,8.00
2022-09-06T19:18:25.966Z,8.07
2022-09-06T19:20:52.492Z,9.03
2022-09-06T19:23:19.117Z,9.83
2022-09-06T19:25:45.643Z,11.00
2022-09-06T19:28:21.320Z,9.80
2022-09-06T19:30:48.227Z,9.43
2022-09-06T19:33:14.800Z,8.60
2022-09-06T19:35:55.877Z,7.87
2022-09-06T19:38:27.922Z,7.87
2022-09-06T19:40:58.442Z,9.17
2022-09-06T19:43:25.119Z,9.37
2022-09-06T19:45:51.623Z,8.30
2022-09-06T19:48:18.231Z,9.53
2022-09-06T19:50:44.751Z,7.87
2022-09-06T19:53:11.478Z,8.77
2022-09-06T19:55:37.991Z,8.17
2022-09-06T19:58:04.901Z,7.87
2022-09-06T20:00:35.402Z,7.57
2022-09-06T20:03:02.315Z,8.47
2022-09-06T20:05:28.896Z,7.67
2022-09-06T20:07:55.610Z,8.50
2022-09-06T20:10:22.118Z,7.97
2022-09-06T20:12:48.633Z,8.07
2022-09-06T20:15:16.332Z,11.93
2022-09-06T20:17:42.834Z,11.27
2022-09-06T20:20:09.408Z,7.70
2022-09-06T20:22:35.990Z,8.37
2022-09-06T20:25:02.505Z,8.73
2022-09-06T20:27:29.028Z,8.40
2022-09-06T20:29:55.554Z,8.93
2022-09-06T20:32:22.057Z,9.07
2022-09-06T20:34:48.640Z,9.30
2022-09-06T20:37:15.162Z,8.83
2022-09-06T20:39:41.892Z,8.77
2022-09-06T20:42:08.401Z,8.90
2022-09-06T20:44:35.065Z,8.87
2022-09-06T20:47:01.736Z,9.33
2022-09-06T20:49:28.277Z,9.13
2022-09-06T20:51:54.837Z,9.87
2022-09-06T20:54:21.410Z,8.83
2022-09-06T20:56:47.977Z,8.63
2022-09-06T20:59:14.652Z,8.87
2022-09-06T21:01:41.223Z,8.67
2022-09-06T21:04:07.785Z,9.73
2022-09-06T21:06:34.294Z,9.13
2022-09-06T21:09:00.901Z,9.53
2022-09-06T21:11:27.789Z,9.67
2022-09-06T21:13:54.344Z,9.53
2022-09-06T21:16:24.713Z,9.47
2022-09-06T21:18:51.702Z,9.90
2022-09-06T21:21:18.310Z,10.27
2022-09-06T21:23:44.809Z,10.53
2022-09-06T21:26:11.321Z,10.07
2022-09-06T21:28:37.841Z,9.67
2022-09-06T21:31:04.478Z,12.53
2022-09-06T21:33:31.360Z,9.33
2022-09-06T21:35:57.987Z,9.30
2022-09-06T21:38:24.915Z,9.47
2022-09-06T21:40:51.612Z,8.60
2022-09-06T21:43:18.116Z,9.30
2022-09-06T21:45:44.804Z,9.63
2022-09-06T21:48:11.345Z,9.50
2022-09-06T21:50:37.864Z,10.43
2022-09-06T21:53:04.447Z,9.80
2022-09-06T21:55:30.976Z,9.90
2022-09-06T21:57:57.579Z,10.00
2022-09-06T22:00:24.175Z,9.63
2022-09-06T22:02:50.675Z,10.43
2022-09-06T22:05:17.294Z,10.27
2022-09-06T22:07:43.870Z,9.50
2022-09-06T22:10:10.373Z,9.50
2022-09-06T22:12:37.413Z,9.07
2022-09-06T22:15:04.037Z,9.87
2022-09-06T22:17:30.602Z,9.73
2022-09-06T22:19:57.125Z,9.90
2022-09-06T22:22:23.696Z,9.57
2022-09-06T22:24:50.214Z,11.73
2022-09-06T22:27:16.717Z,9.47
2022-09-06T22:29:43.323Z,9.30
2022-09-06T22:32:10.000Z,9.37
2022-09-06T22:34:36.565Z,9.00
2022-09-06T22:37:03.467Z,10.13
2022-09-06T22:39:30.037Z,10.30
2022-09-06T22:41:56.591Z,10.80
2022-09-06T22:44:23.161Z,9.87
2022-09-06T22:46:49.918Z,9.30
2022-09-06T22:49:16.471Z,8.97
2022-09-06T22:51:43.113Z,9.90
2022-09-06T22:54:09.617Z,9.10
2022-09-06T22:56:36.535Z,9.77
2022-09-06T22:59:03.059Z,9.37
2022-09-06T23:01:29.582Z,10.27
2022-09-06T23:03:56.261Z,10.23
2022-09-06T23:06:22.792Z,8.60
2022-09-06T23:08:49.477Z,9.50
2022-09-06T23:11:16.144Z,10.37
2022-09-06T23:13:42.681Z,9.50
2022-09-06T23:16:09.369Z,12.07
2022-09-06T23:18:36.066Z,10.67
2022-09-06T23:21:10.852Z,9.83
2022-09-06T23:23:37.526Z,10.33
2022-09-06T23:26:04.101Z,10.60
2022-09-06T23:28:30.918Z,9.47
2022-09-06T23:30:57.766Z,10.10
2022-09-06T23:33:32.373Z,9.83
2022-09-06T23:38:39.400Z,9.00
2022-09-06T23:41:05.914Z,9.30
2022-09-06T23:43:40.639Z,7.93
2022-09-06T23:46:07.317Z,8.07
2022-09-06T23:48:33.941Z,9.20
2022-09-06T23:51:00.461Z,9.80
2022-09-06T23:53:27.093Z,9.20
2022-09-06T23:56:01.540Z,11.13
2022-09-06T23:58:36.166Z,9.53
